Time;durP1;ratioP1;P1;durP2;ratioP2;P2;SDS_P1;SDS_P2;PMS_P1;PMS_P2;Temp;Humidity;BMP_temperature;BMP_pressure;BME280_temperature;BME280_humidity;BME280_pressure;Samples;Min_cycle;Max_cycle;Signal;HPM_P1;HPM_P2
2021/04/29 00:01:43;;;;;;;8.55;6.25;;;;;;;;;;4914918;29;20372;-70
2021/04/29 00:04:09;;;;;;;10.68;6.88;;;;;;;;;;4914909;29;20464;-71
2021/04/29 00:06:35;;;;;;;7.72;6.10;;;;;;;;;;4914848;29;20051;-71
2021/04/29 00:09:02;;;;;;;9.43;6.32;;;;;;;;;;4914789;29;20448;-72
2021/04/29 00:11:28;;;;;;;8.88;6.57;;;;;;;;;;4914940;29;20485;-70
2021/04/29 00:13:54;;;;;;;9.60;6.53;;;;;;;;;;4914896;29;20036;-72
2021/04/29 00:16:20;;;;;;;8.95;6.68;;;;;;;;;;4914738;29;20076;-71
2021/04/29 00:18:46;;;;;;;9.52;6.95;;;;;;;;;;4914736;29;20055;-72
2021/04/29 00:21:12;;;;;;;8.02;5.88;;;;;;;;;;4914601;29;20032;-72
2021/04/29 00:23:38;;;;;;;9.63;6.60;;;;;;;;;;4914919;29;20048;-72
2021/04/29 00:26:04;;;;;;;10.55;6.30;;;;;;;;;;4914755;29;20028;-71
2021/04/29 00:28:30;;;;;;;9.40;6.35;;;;;;;;;;4914727;29;20039;-71
2021/04/29 00:30:56;;;;;;;8.77;6.10;;;;;;;;;;4914893;29;20025;-72
2021/04/29 00:33:23;;;;;;;11.00;6.25;;;;;;;;;;4914383;29;20107;-72
2021/04/29 00:35:49;;;;;;;9.18;6.53;;;;;;;;;;4914541;29;20462;-72
2021/04/29 00:38:16;;;;;;;11.52;6.95;;;;;;;;;;4913211;29;20559;-71
2021/04/29 00:40:42;;;;;;;11.63;7.03;;;;;;;;;;4912308;29;20099;-70
2021/04/29 00:43:12;;;;;;;11.05;7.32;;;;;;;;;;4912598;29;20063;-70
2021/04/29 00:45:38;;;;;;;11.93;8.32;;;;;;;;;;4913812;29;20024;-71
2021/04/29 00:48:04;;;;;;;11.65;7.70;;;;;;;;;;4914431;29;20050;-71
2021/04/29 00:50:30;;;;;;;11.57;7.75;;;;;;;;;;4914562;29;20028;-70
2021/04/29 00:52:56;;;;;;;11.70;7.55;;;;;;;;;;4913979;29;20981;-71
2021/04/29 00:55:23;;;;;;;9.95;7.47;;;;;;;;;;4914597;29;20073;-73
2021/04/29 00:57:49;;;;;;;13.07;8.45;;;;;;;;;;4914240;29;20032;-71
2021/04/29 01:00:15;;;;;;;12.77;7.90;;;;;;;;;;4914675;29;20111;-71
2021/04/29 01:02:43;;;;;;;11.80;7.88;;;;;;;;;;4914483;29;20752;-72
2021/04/29 01:05:15;;;;;;;11.98;8.43;;;;;;;;;;4896389;29;20040;-72
2021/04/29 01:07:42;;;;;;;11.57;7.82;;;;;;;;;;4913462;29;20035;-71
2021/04/29 01:10:08;;;;;;;12.52;7.80;;;;;;;;;;4917746;29;20516;-71
2021/04/29 01:12:46;;;;;;;10.63;7.43;;;;;;;;;;4919701;29;20028;-70
2021/04/29 01:15:13;;;;;;;10.88;8.00;;;;;;;;;;4919480;29;20107;-72
2021/04/29 01:17:41;;;;;;;13.70;8.43;;;;;;;;;;4900384;29;20040;-71
2021/04/29 01:20:15;;;;;;;11.93;7.97;;;;;;;;;;4917577;29;20035;-71
2021/04/29 01:22:44;;;;;;;11.23;7.75;;;;;;;;;;4917478;29;20067;-72
2021/04/29 01:25:13;;;;;;;11.52;7.90;;;;;;;;;;4917613;29;20067;-71
2021/04/29 01:27:39;;;;;;;12.35;8.15;;;;;;;;;;4900016;29;20040;-71
2021/04/29 01:30:07;;;;;;;12.73;8.25;;;;;;;;;;4917571;29;20032;-71
2021/04/29 01:32:33;;;;;;;12.40;8.40;;;;;;;;;;4917407;29;20115;-72
2021/04/29 01:35:00;;;;;;;13.77;8.70;;;;;;;;;;4900531;29;20032;-73
2021/04/29 01:37:26;;;;;;;16.42;9.13;;;;;;;;;;4900537;29;20036;-72
2021/04/29 01:39:52;;;;;;;12.85;8.73;;;;;;;;;;4917529;29;20028;-70
2021/04/29 01:42:18;;;;;;;12.05;8.65;;;;;;;;;;4917456;29;20626;-72
2021/04/29 01:44:45;;;;;;;10.80;7.85;;;;;;;;;;4917444;29;20472;-71
2021/04/29 01:47:11;;;;;;;11.85;8.57;;;;;;;;;;4917201;29;20043;-72
2021/04/29 01:49:37;;;;;;;13.90;8.57;;;;;;;;;;4917056;29;20032;-72
2021/04/29 01:52:06;;;;;;;11.43;8.38;;;;;;;;;;4916945;29;20036;-72
2021/04/29 01:54:32;;;;;;;12.88;7.78;;;;;;;;;;4917232;29;20044;-66
2021/04/29 01:56:58;;;;;;;12.00;8.25;;;;;;;;;;4917170;29;20113;-68
2021/04/29 01:59:25;;;;;;;13.40;8.07;;;;;;;;;;4917213;29;20031;-71
2021/04/29 02:01:51;;;;;;;11.23;7.85;;;;;;;;;;4916911;29;20036;-72
2021/04/29 02:04:17;;;;;;;11.27;8.48;;;;;;;;;;4916675;29;20039;-70
2021/04/29 02:06:45;;;;;;;12.52;8.20;;;;;;;;;;4916991;29;20545;-71
2021/04/29 02:09:11;;;;;;;11.80;8.35;;;;;;;;;;4916780;29;20076;-72
2021/04/29 02:12:00;;;;;;;12.55;7.80;;;;;;;;;;4916811;29;20025;-71
2021/04/29 02:14:34;;;;;;;12.93;8.57;;;;;;;;;;4839953;29;20091;-70
2021/04/29 02:17:03;;;;;;;12.38;8.40;;;;;;;;;;4839591;29;20049;-71
2021/04/29 02:19:31;;;;;;;11.05;8.40;;;;;;;;;;4839730;29;20038;-70
2021/04/29 02:21:58;;;;;;;11.57;8.10;;;;;;;;;;4839642;29;20033;-72
2021/04/29 02:24:24;;;;;;;11.50;8.43;;;;;;;;;;4839997;29;20037;-72
2021/04/29 02:26:51;;;;;;;11.63;8.80;;;;;;;;;;4839830;29;20061;-72
2021/04/29 02:29:17;;;;;;;11.10;8.57;;;;;;;;;;4839742;29;20049;-71
2021/04/29 02:31:44;;;;;;;13.05;8.35;;;;;;;;;;4839799;29;20053;-71
2021/04/29 02:34:10;;;;;;;15.13;8.48;;;;;;;;;;4839515;29;20062;-71
2021/04/29 02:36:36;;;;;;;13.13;8.50;;;;;;;;;;4838940;29;20502;-72
2021/04/29 02:39:05;;;;;;;12.68;8.27;;;;;;;;;;4839592;29;20042;-70
2021/04/29 02:41:31;;;;;;;11.77;8.23;;;;;;;;;;4839381;29;20080;-70
2021/04/29 02:43:59;;;;;;;12.48;8.52;;;;;;;;;;4839396;29;20044;-72
2021/04/29 02:46:26;;;;;;;11.93;8.40;;;;;;;;;;4839137;29;20030;-72
2021/04/29 02:48:52;;;;;;;11.90;8.00;;;;;;;;;;4839364;29;20030;-72
2021/04/29 02:51:18;;;;;;;11.40;8.10;;;;;;;;;;4873478;29;20044;-71
2021/04/29 02:53:44;;;;;;;11.35;7.78;;;;;;;;;;4915819;29;20469;-71
2021/04/29 02:56:10;;;;;;;11.75;7.97;;;;;;;;;;4916138;29;20039;-72
2021/04/29 02:58:46;;;;;;;12.20;8.43;;;;;;;;;;4916074;29;20069;-71
2021/04/29 03:01:12;;;;;;;12.05;8.18;;;;;;;;;;4915689;29;20095;-72
2021/04/29 03:03:39;;;;;;;11.30;8.52;;;;;;;;;;4915893;29;20046;-72
2021/04/29 03:06:05;;;;;;;11.20;7.60;;;;;;;;;;4916023;29;20021;-72
2021/04/29 03:08:31;;;;;;;11.32;7.90;;;;;;;;;;4915781;29;20056;-71
2021/04/29 03:10:58;;;;;;;10.20;7.40;;;;;;;;;;4915738;29;20534;-71
2021/04/29 03:13:24;;;;;;;10.23;7.82;;;;;;;;;;4915776;29;20400;-72
2021/04/29 03:15:50;;;;;;;9.85;7.78;;;;;;;;;;4915782;29;20025;-69
2021/04/29 03:18:16;;;;;;;12.98;7.72;;;;;;;;;;4915415;29;20049;-70
2021/04/29 03:20:42;;;;;;;10.60;8.07;;;;;;;;;;4915524;29;20036;-71
2021/04/29 03:23:08;;;;;;;11.07;8.13;;;;;;;;;;4915377;29;20040;-68
2021/04/29 03:25:34;;;;;;;11.45;8.27;;;;;;;;;;4915538;29;20057;-71
2021/04/29 03:28:00;;;;;;;11.32;7.57;;;;;;;;;;4915260;29;20082;-73
2021/04/29 03:30:27;;;;;;;11.93;8.07;;;;;;;;;;4915171;29;20388;-71
2021/04/29 03:32:53;;;;;;;12.82;8.75;;;;;;;;;;4914892;29;20354;-69
2021/04/29 03:35:19;;;;;;;29.27;9.02;;;;;;;;;;4915164;29;20025;-71
2021/04/29 03:37:45;;;;;;;12.00;8.02;;;;;;;;;;4915177;29;20500;-71
2021/04/29 03:40:11;;;;;;;10.55;7.82;;;;;;;;;;4897668;29;20042;-71
2021/04/29 03:42:37;;;;;;;11.57;8.18;;;;;;;;;;4915058;29;20073;-71
2021/04/29 03:45:06;;;;;;;10.07;7.60;;;;;;;;;;4915157;29;20032;-71
2021/04/29 03:47:33;;;;;;;11.80;7.43;;;;;;;;;;4915111;29;20142;-69
2021/04/29 03:49:59;;;;;;;10.25;7.25;;;;;;;;;;4915071;29;20021;-72
2021/04/29 03:52:25;;;;;;;9.55;6.75;;;;;;;;;;4914669;29;20044;-71
2021/04/29 03:54:51;;;;;;;9.63;6.97;;;;;;;;;;4914984;29;20076;-71
2021/04/29 03:57:17;;;;;;;11.05;6.90;;;;;;;;;;4914867;29;20032;-72
2021/04/29 03:59:43;;;;;;;9.35;5.95;;;;;;;;;;4914723;29;20430;-72
2021/04/29 04:02:10;;;;;;;7.97;5.85;;;;;;;;;;4914730;29;20469;-71
2021/04/29 04:04:36;;;;;;;9.15;5.75;;;;;;;;;;4915034;29;20031;-72
2021/04/29 04:07:03;;;;;;;9.05;6.85;;;;;;;;;;4914917;29;20068;-71
2021/04/29 04:09:29;;;;;;;8.70;6.60;;;;;;;;;;4915209;29;20056;-72
2021/04/29 04:11:55;;;;;;;10.02;7.13;;;;;;;;;;4915052;29;20545;-72
2021/04/29 04:14:21;;;;;;;9.07;5.95;;;;;;;;;;4915102;29;20040;-71
2021/04/29 04:16:47;;;;;;;9.80;6.60;;;;;;;;;;4914628;29;20056;-72
2021/04/29 04:19:13;;;;;;;8.35;6.22;;;;;;;;;;4914695;29;20032;-74
2021/04/29 04:21:39;;;;;;;11.73;6.97;;;;;;;;;;4914608;29;20036;-73
2021/04/29 04:24:05;;;;;;;9.85;6.75;;;;;;;;;;4914856;29;20078;-73
2021/04/29 04:26:31;;;;;;;12.63;7.03;;;;;;;;;;4914238;29;20063;-73
2021/04/29 04:28:57;;;;;;;9.63;6.63;;;;;;;;;;4914573;29;20087;-71
2021/04/29 04:31:24;;;;;;;9.35;6.40;;;;;;;;;;4897281;29;20487;-69
2021/04/29 04:33:50;;;;;;;10.25;7.03;;;;;;;;;;4897352;29;20060;-68
2021/04/29 04:36:17;;;;;;;9.88;6.85;;;;;;;;;;4914508;29;20035;-70
2021/04/29 04:38:43;;;;;;;10.95;6.78;;;;;;;;;;4914476;29;20073;-71
2021/04/29 04:41:09;;;;;;;12.18;7.55;;;;;;;;;;4914643;29;20152;-68
2021/04/29 04:43:35;;;;;;;9.90;7.25;;;;;;;;;;4915806;29;20037;-71
2021/04/29 04:46:01;;;;;;;11.55;7.40;;;;;;;;;;4918255;29;20024;-67
2021/04/29 04:48:27;;;;;;;9.32;7.15;;;;;;;;;;4918404;29;20036;-70
2021/04/29 04:50:54;;;;;;;10.95;7.85;;;;;;;;;;4917979;29;20028;-73
2021/04/29 04:53:21;;;;;;;9.18;6.93;;;;;;;;;;4917127;29;20055;-65
2021/04/29 04:55:49;;;;;;;10.80;7.55;;;;;;;;;;4917712;29;20024;-70
2021/04/29 04:58:18;;;;;;;10.20;7.10;;;;;;;;;;4917995;29;20091;-66
2021/04/29 05:00:45;;;;;;;12.75;7.82;;;;;;;;;;4918010;29;20052;-65
2021/04/29 05:03:11;;;;;;;13.18;7.65;;;;;;;;;;4900565;29;20048;-70
2021/04/29 05:05:41;;;;;;;15.00;9.77;;;;;;;;;;4917867;29;20141;-69
2021/04/29 05:08:07;;;;;;;14.20;8.48;;;;;;;;;;4917930;29;20519;-72
2021/04/29 05:10:34;;;;;;;11.40;7.53;;;;;;;;;;4918059;29;20028;-66
2021/04/29 05:13:02;;;;;;;12.55;8.13;;;;;;;;;;4900814;29;20170;-71
2021/04/29 05:15:28;;;;;;;12.55;8.02;;;;;;;;;;4918012;29;20024;-70
2021/04/29 05:17:54;;;;;;;12.82;8.35;;;;;;;;;;4916956;29;20067;-69
2021/04/29 05:20:20;;;;;;;15.18;8.35;;;;;;;;;;4917753;29;20028;-69
2021/04/29 05:22:47;;;;;;;11.43;7.88;;;;;;;;;;4917388;29;20535;-69
2021/04/29 05:25:13;;;;;;;11.80;8.13;;;;;;;;;;4917535;29;20064;-70
2021/04/29 05:27:39;;;;;;;10.98;7.70;;;;;;;;;;4917231;29;20028;-69
2021/04/29 05:30:06;;;;;;;14.00;7.88;;;;;;;;;;4917606;29;20059;-68
2021/04/29 05:32:32;;;;;;;12.05;7.70;;;;;;;;;;4932910;29;20031;-69
2021/04/29 05:34:58;;;;;;;12.85;7.65;;;;;;;;;;4936336;29;20433;-72
2021/04/29 05:37:25;;;;;;;10.65;7.53;;;;;;;;;;4936244;29;20392;-69
2021/04/29 05:39:51;;;;;;;13.60;8.75;;;;;;;;;;4936191;29;20030;-66
2021/04/29 05:42:18;;;;;;;13.23;8.65;;;;;;;;;;4936380;29;20392;-71
2021/04/29 05:44:44;;;;;;;12.60;8.30;;;;;;;;;;4936244;29;20102;-71
2021/04/29 05:47:10;;;;;;;11.95;7.95;;;;;;;;;;4936002;29;20440;-72
2021/04/29 05:49:36;;;;;;;12.95;8.30;;;;;;;;;;4936113;29;20028;-66
2021/04/29 05:52:02;;;;;;;17.63;8.32;;;;;;;;;;4918759;29;20106;-65
2021/04/29 05:54:28;;;;;;;11.73;7.47;;;;;;;;;;4935469;29;20090;-71
2021/04/29 05:56:54;;;;;;;18.02;11.32;;;;;;;;;;4935542;29;20027;-69
2021/04/29 05:59:21;;;;;;;12.60;7.97;;;;;;;;;;4931904;29;20035;-73
2021/04/29 06:01:47;;;;;;;16.17;7.82;;;;;;;;;;4935252;29;20091;-69
2021/04/29 06:04:13;;;;;;;11.18;7.32;;;;;;;;;;4935847;29;20032;-71
2021/04/29 06:06:39;;;;;;;11.85;6.72;;;;;;;;;;4935976;29;20035;-69
2021/04/29 06:09:05;;;;;;;10.70;6.35;;;;;;;;;;4935869;29;20437;-69
2021/04/29 06:11:31;;;;;;;9.98;6.72;;;;;;;;;;4935376;29;20488;-71
2021/04/29 06:13:57;;;;;;;11.35;6.50;;;;;;;;;;4935385;29;20034;-70
2021/04/29 06:16:23;;;;;;;9.35;6.32;;;;;;;;;;4935646;29;20469;-69
2021/04/29 06:18:49;;;;;;;10.05;7.03;;;;;;;;;;4935427;29;20039;-68
2021/04/29 06:21:16;;;;;;;11.32;6.70;;;;;;;;;;4918055;29;20051;-72
2021/04/29 06:23:42;;;;;;;9.80;6.93;;;;;;;;;;4935394;29;20123;-71
2021/04/29 06:26:08;;;;;;;9.32;6.30;;;;;;;;;;4935295;29;20027;-69
2021/04/29 06:28:34;;;;;;;10.20;6.43;;;;;;;;;;4935255;29;20027;-71
2021/04/29 06:31:00;;;;;;;9.48;6.40;;;;;;;;;;4935493;29;20042;-72
2021/04/29 06:33:26;;;;;;;12.63;6.30;;;;;;;;;;4935399;29;20031;-72
2021/04/29 06:35:53;;;;;;;11.00;6.68;;;;;;;;;;4935117;29;20379;-77
2021/04/29 06:38:19;;;;;;;11.25;6.93;;;;;;;;;;4930367;29;20038;-74
2021/04/29 06:40:45;;;;;;;10.45;6.97;;;;;;;;;;4930876;29;20503;-70
2021/04/29 06:43:11;;;;;;;9.60;6.68;;;;;;;;;;4934287;29;20035;-75
2021/04/29 06:45:40;;;;;;;8.80;6.25;;;;;;;;;;4934131;29;20499;-73
2021/04/29 06:48:07;;;;;;;10.63;7.03;;;;;;;;;;4934038;29;20032;-73
2021/04/29 06:50:33;;;;;;;9.80;6.20;;;;;;;;;;4934019;29;20059;-72
2021/04/29 06:52:59;;;;;;;12.02;7.35;;;;;;;;;;4934033;29;20052;-74
2021/04/29 06:55:25;;;;;;;10.98;7.25;;;;;;;;;;4934511;29;20468;-74
2021/04/29 06:57:51;;;;;;;9.63;6.60;;;;;;;;;;4933873;29;20063;-74
2021/04/29 07:00:17;;;;;;;12.57;7.18;;;;;;;;;;4933877;29;20023;-72
2021/04/29 07:02:43;;;;;;;9.77;6.47;;;;;;;;;;4933528;29;20035;-72
2021/04/29 07:05:10;;;;;;;13.07;6.82;;;;;;;;;;4933873;29;20082;-72
2021/04/29 07:07:36;;;;;;;8.90;6.43;;;;;;;;;;4930483;29;20032;-70
2021/04/29 07:10:03;;;;;;;11.77;6.20;;;;;;;;;;4913796;29;20031;-73
2021/04/29 07:12:29;;;;;;;11.90;7.38;;;;;;;;;;4912352;29;20452;-67
2021/04/29 07:14:55;;;;;;;10.75;6.63;;;;;;;;;;4912032;29;20557;-69
2021/04/29 07:17:21;;;;;;;12.35;6.97;;;;;;;;;;4913645;29;20035;-65
2021/04/29 07:19:47;;;;;;;11.80;6.90;;;;;;;;;;4913478;29;20103;-68
2021/04/29 07:22:13;;;;;;;10.27;6.50;;;;;;;;;;4913220;29;20039;-67
2021/04/29 07:24:39;;;;;;;9.50;6.80;;;;;;;;;;4912800;29;20036;-67
2021/04/29 07:27:05;;;;;;;11.60;6.72;;;;;;;;;;4912785;29;20031;-64
2021/04/29 07:29:32;;;;;;;10.75;6.97;;;;;;;;;;4926325;29;20024;-70
2021/04/29 07:31:58;;;;;;;11.45;6.88;;;;;;;;;;4921842;29;20123;-66
2021/04/29 07:34:24;;;;;;;11.65;6.57;;;;;;;;;;4912476;29;20469;-65
2021/04/29 07:36:51;;;;;;;11.48;6.57;;;;;;;;;;4911788;29;20032;-68
2021/04/29 07:39:17;;;;;;;12.20;6.43;;;;;;;;;;4913123;29;20028;-66
2021/04/29 07:41:43;;;;;;;13.57;6.80;;;;;;;;;;4913093;29;20404;-65
2021/04/29 07:44:09;;;;;;;13.70;6.93;;;;;;;;;;4913266;29;20962;-66
2021/04/29 07:46:35;;;;;;;9.60;6.22;;;;;;;;;;4923954;29;20035;-66
2021/04/29 07:49:01;;;;;;;10.20;7.10;;;;;;;;;;4913926;29;20079;-67
2021/04/29 07:51:27;;;;;;;11.52;6.70;;;;;;;;;;4913860;29;20036;-65
2021/04/29 07:53:54;;;;;;;12.05;7.22;;;;;;;;;;4914140;29;20058;-69
2021/04/29 07:56:20;;;;;;;12.20;7.25;;;;;;;;;;4914191;29;20071;-70
2021/04/29 07:58:46;;;;;;;12.65;6.82;;;;;;;;;;4913467;29;20028;-64
2021/04/29 08:01:12;;;;;;;11.20;7.10;;;;;;;;;;4914406;29;20036;-70
2021/04/29 08:03:38;;;;;;;12.35;7.10;;;;;;;;;;4914609;29;20046;-68
2021/04/29 08:06:05;;;;;;;12.75;6.45;;;;;;;;;;4914737;29;20064;-69
2021/04/29 08:08:31;;;;;;;11.82;6.88;;;;;;;;;;4914432;29;20389;-65
2021/04/29 08:10:57;;;;;;;10.18;6.80;;;;;;;;;;4914384;29;20028;-69
2021/04/29 08:13:23;;;;;;;11.82;6.50;;;;;;;;;;4914154;29;20040;-69
2021/04/29 08:15:49;;;;;;;9.77;6.22;;;;;;;;;;4914154;29;20036;-69
2021/04/29 08:18:15;;;;;;;10.45;6.63;;;;;;;;;;4913421;29;20047;-65
2021/04/29 08:20:42;;;;;;;11.30;6.90;;;;;;;;;;4914088;29;20028;-68
2021/04/29 08:23:08;;;;;;;11.30;6.28;;;;;;;;;;4914285;29;20043;-69
2021/04/29 08:25:34;;;;;;;12.00;6.38;;;;;;;;;;4914248;29;20036;-68
2021/04/29 08:28:00;;;;;;;9.68;6.70;;;;;;;;;;4914089;29;20107;-67
2021/04/29 08:30:27;;;;;;;14.00;6.32;;;;;;;;;;4914290;29;20150;-69
2021/04/29 08:32:54;;;;;;;12.13;6.72;;;;;;;;;;4913888;29;20072;-65
2021/04/29 08:35:21;;;;;;;13.35;6.75;;;;;;;;;;4914122;29;20484;-68
2021/04/29 08:37:47;;;;;;;10.80;6.63;;;;;;;;;;4897227;29;20032;-68
2021/04/29 08:40:14;;;;;;;10.35;6.03;;;;;;;;;;4914242;29;20027;-68
2021/04/29 08:42:41;;;;;;;11.90;6.35;;;;;;;;;;4914182;29;20043;-69
2021/04/29 08:45:09;;;;;;;9.98;6.47;;;;;;;;;;4913927;29;20028;-67
2021/04/29 08:47:36;;;;;;;11.40;6.65;;;;;;;;;;4914018;29;20032;-69
2021/04/29 08:50:02;;;;;;;12.18;6.78;;;;;;;;;;4913817;29;20047;-68
2021/04/29 08:52:28;;;;;;;12.40;6.15;;;;;;;;;;4893062;29;20039;-65
2021/04/29 08:54:54;;;;;;;8.35;5.60;;;;;;;;;;4894977;29;20040;-65
2021/04/29 08:57:21;;;;;;;10.05;6.18;;;;;;;;;;4895169;29;20039;-68
2021/04/29 08:59:48;;;;;;;9.32;6.28;;;;;;;;;;4895099;29;20561;-69
2021/04/29 09:02:14;;;;;;;12.43;5.85;;;;;;;;;;4894647;29;20048;-66
2021/04/29 09:04:41;;;;;;;12.55;6.68;;;;;;;;;;4891002;29;20032;-67
2021/04/29 09:07:14;;;;;;;12.25;6.43;;;;;;;;;;4894232;29;20029;-67
2021/04/29 09:09:42;;;;;;;9.25;5.88;;;;;;;;;;4895036;29;20033;-66
2021/04/29 09:12:08;;;;;;;12.90;5.97;;;;;;;;;;4894298;29;20024;-65
2021/04/29 09:14:41;;;;;;;11.43;5.85;;;;;;;;;;4894296;29;20551;-65
2021/04/29 09:17:07;;;;;;;10.85;5.78;;;;;;;;;;4893074;29;20033;-66
2021/04/29 09:19:35;;;;;;;11.73;6.00;;;;;;;;;;4892795;29;20029;-66
2021/04/29 09:22:02;;;;;;;9.88;5.85;;;;;;;;;;4894386;29;20071;-66
2021/04/29 09:24:34;;;;;;;11.05;5.50;;;;;;;;;;5063452;23;20380;-68
2021/04/29 09:27:09;;;;;;;10.95;5.55;;;;;;;;;;4872439;29;20037;-68
2021/04/29 09:29:35;;;;;;;9.38;5.97;;;;;;;;;;4875893;29;20053;-67
2021/04/29 09:32:02;;;;;;;13.35;5.80;;;;;;;;;;4878834;29;20028;-67
2021/04/29 09:34:37;;;;;;;11.50;5.75;;;;;;;;;;4879168;29;20033;-67
2021/04/29 09:37:04;;;;;;;11.85;6.10;;;;;;;;;;4879598;29;20553;-69
2021/04/29 09:39:34;;;;;;;8.02;5.18;;;;;;;;;;4879492;29;20397;-69
2021/04/29 09:42:00;;;;;;;9.38;4.88;;;;;;;;;;4879648;29;20120;-68
2021/04/29 09:44:26;;;;;;;8.73;4.75;;;;;;;;;;4879181;29;20385;-66
2021/04/29 09:47:03;;;;;;;9.05;5.32;;;;;;;;;;4879309;29;20021;-69
2021/04/29 09:49:32;;;;;;;9.80;5.10;;;;;;;;;;4878696;29;20040;-70
2021/04/29 09:51:59;;;;;;;11.70;5.68;;;;;;;;;;4879322;29;20497;-69
2021/04/29 09:54:25;;;;;;;10.45;5.32;;;;;;;;;;4878494;29;20049;-66
2021/04/29 09:56:55;;;;;;;12.15;5.20;;;;;;;;;;4878567;29;20128;-68
2021/04/29 09:59:22;;;;;;;10.13;4.88;;;;;;;;;;4876684;29;20036;-69
2021/04/29 10:01:48;;;;;;;9.63;5.05;;;;;;;;;;4876156;29;20033;-70
2021/04/29 10:04:14;;;;;;;10.82;4.82;;;;;;;;;;4877965;29;20088;-68
2021/04/29 10:06:40;;;;;;;8.70;4.53;;;;;;;;;;4876398;29;20033;-69
2021/04/29 10:09:06;;;;;;;7.82;4.60;;;;;;;;;;4878064;29;20033;-69
2021/04/29 10:11:33;;;;;;;11.52;4.95;;;;;;;;;;4877769;29;20532;-69
2021/04/29 10:14:01;;;;;;;9.32;4.60;;;;;;;;;;4877290;29;20017;-70
2021/04/29 10:16:30;;;;;;;10.77;4.40;;;;;;;;;;4877650;29;20119;-69
2021/04/29 10:18:57;;;;;;;9.38;4.30;;;;;;;;;;4877231;29;20021;-68
2021/04/29 10:21:23;;;;;;;9.35;4.47;;;;;;;;;;4877375;29;20101;-66
2021/04/29 10:23:49;;;;;;;7.15;4.15;;;;;;;;;;4877069;29;20048;-69
2021/04/29 10:26:26;;;;;;;8.30;5.00;;;;;;;;;;4878575;29;20052;-69
2021/04/29 10:29:00;;;;;;;8.30;4.30;;;;;;;;;;4878557;29;20112;-68
2021/04/29 10:31:27;;;;;;;10.15;4.13;;;;;;;;;;4877738;29;20132;-70
2021/04/29 10:33:56;;;;;;;7.75;4.05;;;;;;;;;;4877509;29;20029;-70
2021/04/29 10:36:23;;;;;;;6.97;3.67;;;;;;;;;;4873412;29;20029;-70
2021/04/29 10:38:50;;;;;;;8.50;4.13;;;;;;;;;;4876186;29;20028;-70
2021/04/29 10:41:17;;;;;;;8.90;4.32;;;;;;;;;;4875349;29;20029;-66
2021/04/29 10:43:44;;;;;;;10.48;3.90;;;;;;;;;;4877105;29;20135;-65
2021/04/29 10:46:10;;;;;;;8.50;4.28;;;;;;;;;;4860721;29;20068;-66
2021/04/29 10:48:49;;;;;;;8.18;3.70;;;;;;;;;;4877881;29;20105;-65
2021/04/29 10:51:15;;;;;;;12.18;4.70;;;;;;;;;;4878322;29;20037;-65
2021/04/29 10:53:41;;;;;;;7.45;4.15;;;;;;;;;;4877710;29;20061;-66
2021/04/29 10:56:14;;;;;;;6.30;4.05;;;;;;;;;;4860594;29;20041;-70
2021/04/29 10:58:41;;;;;;;11.07;4.63;;;;;;;;;;4877676;29;20113;-65
2021/04/29 11:01:11;;;;;;;10.15;4.35;;;;;;;;;;4877812;29;20508;-66
2021/04/29 11:03:38;;;;;;;8.65;4.20;;;;;;;;;;4878245;29;20401;-66
2021/04/29 11:06:07;;;;;;;8.02;3.97;;;;;;;;;;4877451;29;20081;-65
2021/04/29 11:08:34;;;;;;;8.25;4.22;;;;;;;;;;4877319;29;20044;-69
2021/04/29 11:11:00;;;;;;;13.30;4.30;;;;;;;;;;4861228;29;20044;-66
2021/04/29 11:13:27;;;;;;;18.02;4.88;;;;;;;;;;4877692;29;20108;-65
2021/04/29 11:16:01;;;;;;;8.13;4.18;;;;;;;;;;4877146;29;20032;-64
2021/04/29 11:18:27;;;;;;;24.85;4.57;;;;;;;;;;4876550;29;20024;-68
2021/04/29 11:20:53;;;;;;;15.25;4.35;;;;;;;;;;4877396;29;20025;-63
2021/04/29 11:23:39;;;;;;;13.23;4.47;;;;;;;;;;4877137;29;20041;-62
2021/04/29 11:26:05;;;;;;;10.38;4.25;;;;;;;;;;4876995;29;20544;-68
2021/04/29 11:28:31;;;;;;;9.00;4.05;;;;;;;;;;4876910;29;20037;-68
2021/04/29 11:30:57;;;;;;;9.70;4.03;;;;;;;;;;4877776;29;20494;-71
2021/04/29 11:33:31;;;;;;;12.00;4.60;;;;;;;;;;4877624;29;20028;-68
2021/04/29 11:35:57;;;;;;;8.90;3.95;;;;;;;;;;4860712;29;20061;-68
2021/04/29 11:38:23;;;;;;;8.20;4.32;;;;;;;;;;4877681;29;20393;-66
2021/04/29 11:40:49;;;;;;;7.95;4.32;;;;;;;;;;4877029;29;20037;-69
2021/04/29 11:43:15;;;;;;;8.65;4.38;;;;;;;;;;4876952;29;20052;-69
2021/04/29 11:45:42;;;;;;;8.05;4.40;;;;;;;;;;4876657;29;20477;-62
2021/04/29 11:48:09;;;;;;;8.25;4.20;;;;;;;;;;4876728;29;20029;-63
2021/04/29 11:50:36;;;;;;;9.55;4.15;;;;;;;;;;4876606;29;20033;-65
2021/04/29 11:53:23;;;;;;;11.65;4.65;;;;;;;;;;4872358;29;20131;-66
2021/04/29 11:55:49;;;;;;;7.85;4.20;;;;;;;;;;4875143;29;20052;-62
2021/04/29 11:58:19;;;;;;;9.02;4.25;;;;;;;;;;4876931;29;20040;-62
2021/04/29 12:00:47;;;;;;;7.35;4.28;;;;;;;;;;4876811;29;20489;-77
2021/04/29 12:03:13;;;;;;;9.85;4.28;;;;;;;;;;4877003;29;20048;-77
2021/04/29 12:06:09;;;;;;;10.68;4.13;;;;;;;;;;4877220;29;20053;-72
2021/04/29 12:08:36;;;;;;;12.32;4.05;;;;;;;;;;4801493;29;20059;-74
2021/04/29 12:11:10;;;;;;;11.20;4.57;;;;;;;;;;4801556;29;20407;-75
2021/04/29 12:13:51;;;;;;;11.70;5.00;;;;;;;;;;4801177;29;20065;-64
2021/04/29 12:16:32;;;;;;;12.70;5.72;;;;;;;;;;4800518;29;20043;-78
2021/04/29 12:19:03;;;;;;;9.10;4.60;;;;;;;;;;4801971;29;20509;-66
2021/04/29 12:21:30;;;;;;;6.63;3.78;;;;;;;;;;4801052;29;20126;-68
2021/04/29 12:23:56;;;;;;;10.93;3.75;;;;;;;;;;4799029;29;20082;-75
2021/04/29 12:26:33;;;;;;;13.30;4.03;;;;;;;;;;4799625;29;20160;-68
2021/04/29 12:29:00;;;;;;;8.27;4.10;;;;;;;;;;4800456;29;20041;-70
2021/04/29 12:31:27;;;;;;;10.70;4.28;;;;;;;;;;4797999;29;20039;-64
2021/04/29 12:33:55;;;;;;;11.07;4.53;;;;;;;;;;4800591;29;20030;-69
2021/04/29 12:36:24;;;;;;;12.60;4.68;;;;;;;;;;4800781;29;20035;-66
2021/04/29 12:38:50;;;;;;;14.38;4.72;;;;;;;;;;4800521;29;20488;-65
2021/04/29 12:41:17;;;;;;;12.68;4.65;;;;;;;;;;4800216;29;20046;-65
2021/04/29 12:43:43;;;;;;;9.25;3.90;;;;;;;;;;4800120;29;20039;-70
2021/04/29 12:46:09;;;;;;;12.48;4.38;;;;;;;;;;4875687;29;20052;-71
2021/04/29 12:48:36;;;;;;;10.88;4.30;;;;;;;;;;4858879;29;20040;-67
2021/04/29 12:51:04;;;;;;;12.05;4.57;;;;;;;;;;4876007;29;20032;-68
2021/04/29 12:53:30;;;;;;;9.10;3.83;;;;;;;;;;4876082;29;20036;-70
2021/04/29 12:55:56;;;;;;;8.52;4.18;;;;;;;;;;4876193;29;20116;-73
2021/04/29 12:58:26;;;;;;;11.15;4.03;;;;;;;;;;4876135;29;20040;-69
2021/04/29 13:00:52;;;;;;;9.15;4.07;;;;;;;;;;4876330;29;20115;-70
2021/04/29 13:03:18;;;;;;;11.98;4.03;;;;;;;;;;4875930;29;20429;-69
2021/04/29 13:05:46;;;;;;;9.30;3.95;;;;;;;;;;4879208;29;20029;-68
2021/04/29 13:08:13;;;;;;;12.88;3.45;;;;;;;;;;4879200;29;20355;-70
2021/04/29 13:10:44;;;;;;;11.10;4.05;;;;;;;;;;4879576;29;20045;-69
2021/04/29 13:13:10;;;;;;;11.45;4.07;;;;;;;;;;4878941;29;20103;-70
2021/04/29 13:15:36;;;;;;;8.73;3.53;;;;;;;;;;4861452;29;20409;-70
2021/04/29 13:18:02;;;;;;;10.52;4.10;;;;;;;;;;4878437;29;20108;-69
2021/04/29 13:20:32;;;;;;;8.55;3.83;;;;;;;;;;4879013;29;20030;-69
2021/04/29 13:22:58;;;;;;;9.32;3.78;;;;;;;;;;4879184;29;20036;-70
2021/04/29 13:25:25;;;;;;;16.75;4.60;;;;;;;;;;4879337;29;20060;-70
2021/04/29 13:27:52;;;;;;;12.90;4.30;;;;;;;;;;4879230;29;20161;-70
2021/04/29 13:30:18;;;;;;;10.80;4.30;;;;;;;;;;4878277;29;20093;-70
